AAL317 KJFK-MDPP
Flight info
| Callsign | AAL317 |
|---|---|
| Flight time | N/A |
| Altitude | 33000 |
| Route | SHIPP Y488 ICCEY/N0461F350 Y488 OHRYN/N0461F340 Y488 GMENN/N0461F360 Y488 WEBBB/M081F360 Y488 HOBOH/M081F350 Y488 CHUBY/M081F360 Y488 SAUCR/M081F350 L453 BOREX/M081F370 L453 LAMER/N0472F370 L453 RODRK/N0472F360 DCT SEKAR SEKAR3S |
| Aircraft | B738/M-SDE2E3FGHIRWXY/LB1 |
Departure
| Time | 2026-05-04 23:30 |
|---|---|
| Airport | John F. Kennedy International Airport (KJFK) |
Arrival
| Time | N/A |
|---|---|
| Airport | Gregorio Luperon International Airport (MDPP) |
| Time | Latitude | Longitude | Altitude | Speed | Heading |
|---|---|---|---|---|---|
| 2026-05-04 22:45 | 40.64747 | -73.79414 | 23 ft | 0 kts | 150° |
| 2026-05-04 23:10 | 40.64748 | -73.79415 | 23 ft | 1 kts | 150° |
| 2026-05-04 23:10 | 40.64768 | -73.79429 | 24 ft | 4 kts | 150° |
| 2026-05-04 23:10 | 40.64790 | -73.79448 | 25 ft | 4 kts | 131° |
| 2026-05-04 23:10 | 40.64800 | -73.79476 | 23 ft | 4 kts | 85° |
| 2026-05-04 23:11 | 40.64795 | -73.79500 | 23 ft | 1 kts | 61° |
| 2026-05-04 23:11 | 40.64794 | -73.79504 | 24 ft | 0 kts | 61° |
| 2026-05-04 23:16 | 40.64794 | -73.79503 | 23 ft | 0 kts | 61° |
| 2026-05-04 23:16 | 40.64815 | -73.79456 | 23 ft | 11 kts | 58° |
| 2026-05-04 23:17 | 40.64856 | -73.79364 | 23 ft | 12 kts | 62° |
| 2026-05-04 23:17 | 40.64897 | -73.79262 | 25 ft | 13 kts | 60° |
| 2026-05-04 23:17 | 40.64944 | -73.79154 | 23 ft | 14 kts | 60° |
| 2026-05-04 23:17 | 40.64989 | -73.79048 | 23 ft | 13 kts | 61° |
| 2026-05-04 23:18 | 40.65034 | -73.78945 | 24 ft | 14 kts | 48° |
| 2026-05-04 23:18 | 40.65120 | -73.78907 | 23 ft | 13 kts | 20° |
| 2026-05-04 23:18 | 40.65141 | -73.78802 | 25 ft | 13 kts | 83° |
| 2026-05-04 23:18 | 40.65173 | -73.78687 | 23 ft | 15 kts | 57° |
| 2026-05-04 23:19 | 40.65225 | -73.78572 | 26 ft | 17 kts | 62° |
| 2026-05-04 23:19 | 40.65266 | -73.78404 | 22 ft | 20 kts | 95° |
| 2026-05-04 23:19 | 40.65204 | -73.78244 | 25 ft | 19 kts | 123° |
| 2026-05-04 23:19 | 40.65136 | -73.78094 | 22 ft | 19 kts | 118° |
| 2026-05-04 23:20 | 40.65071 | -73.77950 | 22 ft | 18 kts | 119° |
| 2026-05-04 23:20 | 40.65007 | -73.77809 | 18 ft | 18 kts | 122° |
| 2026-05-04 23:20 | 40.64943 | -73.77675 | 21 ft | 17 kts | 121° |
| 2026-05-04 23:20 | 40.64907 | -73.77589 | 19 ft | 0 kts | 119° |
| 2026-05-04 23:21 | 40.64906 | -73.77586 | 19 ft | 1 kts | 118° |
| 2026-05-04 23:21 | 40.64898 | -73.77568 | 19 ft | 7 kts | 118° |
| 2026-05-04 23:21 | 40.64868 | -73.77497 | 19 ft | 10 kts | 120° |
| 2026-05-04 23:21 | 40.64833 | -73.77422 | 23 ft | 9 kts | 122° |
| 2026-05-04 23:22 | 40.64796 | -73.77340 | 22 ft | 14 kts | 121° |
| 2026-05-04 23:22 | 40.64741 | -73.77222 | 21 ft | 15 kts | 117° |
| 2026-05-04 23:22 | 40.64683 | -73.77111 | 21 ft | 10 kts | 135° |
| 2026-05-04 23:22 | 40.64642 | -73.77083 | 21 ft | 7 kts | 177° |
| 2026-05-04 23:23 | 40.64594 | -73.77083 | 21 ft | 7 kts | 166° |
| 2026-05-04 23:23 | 40.64571 | -73.77026 | 22 ft | 8 kts | 89° |
| 2026-05-04 23:23 | 40.64581 | -73.76947 | 19 ft | 10 kts | 60° |
| 2026-05-04 23:23 | 40.64649 | -73.76878 | 17 ft | 15 kts | 31° |
| 2026-05-04 23:24 | 40.64737 | -73.76805 | 17 ft | 14 kts | 32° |
| 2026-05-04 23:24 | 40.64820 | -73.76738 | 19 ft | 14 kts | 28° |
| 2026-05-04 23:24 | 40.64903 | -73.76680 | 20 ft | 13 kts | 29° |
| 2026-05-04 23:24 | 40.64979 | -73.76619 | 22 ft | 12 kts | 31° |
| 2026-05-04 23:25 | 40.65049 | -73.76565 | 19 ft | 11 kts | 30° |
| 2026-05-04 23:25 | 40.65054 | -73.76561 | 19 ft | 0 kts | 30° |
| 2026-05-04 23:25 | 40.65056 | -73.76560 | 19 ft | 2 kts | 30° |
| 2026-05-04 23:25 | 40.65096 | -73.76518 | 21 ft | 9 kts | 51° |
| 2026-05-04 23:26 | 40.65093 | -73.76458 | 19 ft | 0 kts | 120° |
| 2026-05-04 23:29 | 40.65075 | -73.76419 | 21 ft | 11 kts | 121° |
| 2026-05-04 23:29 | 40.65026 | -73.76348 | 19 ft | 11 kts | 180° |
| 2026-05-04 23:29 | 40.64965 | -73.76396 | 19 ft | 10 kts | 211° |
| 2026-05-04 23:29 | 40.64916 | -73.76433 | 19 ft | 7 kts | 210° |
| 2026-05-04 23:30 | 40.64851 | -73.76484 | 19 ft | 29 kts | 210° |
| 2026-05-04 23:30 | 40.64449 | -73.76803 | 21 ft | 103 kts | 210° |
| 2026-05-04 23:30 | 40.63656 | -73.77417 | 35 ft | 157 kts | 213° |
| 2026-05-04 23:30 | 40.62809 | -73.78243 | 852 ft | 145 kts | 212° |
| 2026-05-04 23:31 | 40.61980 | -73.79079 | 1574 ft | 149 kts | 213° |
| 2026-05-04 23:31 | 40.61093 | -73.79943 | 1998 ft | 175 kts | 211° |
| 2026-05-04 23:31 | 40.60037 | -73.80849 | 2531 ft | 182 kts | 211° |
| 2026-05-04 23:31 | 40.58889 | -73.81723 | 2793 ft | 203 kts | 210° |
| 2026-05-04 23:32 | 40.57595 | -73.82646 | 3162 ft | 217 kts | 209° |
| 2026-05-04 23:32 | 40.56222 | -73.83611 | 3554 ft | 235 kts | 211° |
| 2026-05-04 23:32 | 40.54776 | -73.84687 | 4217 ft | 242 kts | 211° |
| 2026-05-04 23:32 | 40.53294 | -73.85787 | 4767 ft | 248 kts | 211° |
| 2026-05-04 23:33 | 40.51778 | -73.86904 | 4907 ft | 252 kts | 212° |
| 2026-05-04 23:33 | 40.50245 | -73.88023 | 4958 ft | 250 kts | 211° |
| 2026-05-04 23:33 | 40.48634 | -73.88914 | 5038 ft | 260 kts | 189° |
| 2026-05-04 23:33 | 40.46842 | -73.88417 | 5774 ft | 275 kts | 156° |
| 2026-05-04 23:34 | 40.45304 | -73.86845 | 6539 ft | 287 kts | 136° |
| 2026-05-04 23:34 | 40.44218 | -73.84605 | 7339 ft | 297 kts | 114° |
| 2026-05-04 23:34 | 40.43602 | -73.81987 | 8126 ft | 303 kts | 106° |
| 2026-05-04 23:34 | 40.43110 | -73.79308 | 8922 ft | 308 kts | 104° |
| 2026-05-04 23:35 | 40.42630 | -73.76544 | 9716 ft | 313 kts | 104° |
| 2026-05-04 23:35 | 40.42140 | -73.73741 | 10472 ft | 321 kts | 104° |
| 2026-05-04 23:35 | 40.41612 | -73.70777 | 10717 ft | 346 kts | 104° |
| 2026-05-04 23:35 | 40.41031 | -73.67591 | 10908 ft | 371 kts | 104° |
| 2026-05-04 23:36 | 40.40403 | -73.64199 | 11093 ft | 394 kts | 104° |
| 2026-05-04 23:36 | 40.39734 | -73.60625 | 11345 ft | 411 kts | 104° |
| 2026-05-04 23:36 | 40.39043 | -73.56948 | 11920 ft | 418 kts | 104° |
| 2026-05-04 23:36 | 40.38342 | -73.53235 | 12625 ft | 421 kts | 104° |
| 2026-05-04 23:37 | 40.37632 | -73.49490 | 13328 ft | 424 kts | 104° |
| 2026-05-04 23:37 | 40.36915 | -73.45714 | 13993 ft | 429 kts | 104° |
| 2026-05-04 23:37 | 40.36187 | -73.41888 | 14645 ft | 434 kts | 104° |
| 2026-05-04 23:37 | 40.35451 | -73.38025 | 15320 ft | 439 kts | 104° |
| 2026-05-04 23:38 | 40.34717 | -73.34183 | 16007 ft | 442 kts | 104° |
| 2026-05-04 23:38 | 40.33965 | -73.30253 | 16651 ft | 446 kts | 104° |
| 2026-05-04 23:38 | 40.33149 | -73.26309 | 17247 ft | 450 kts | 109° |
| 2026-05-04 23:38 | 40.31908 | -73.22521 | 17826 ft | 453 kts | 120° |
| 2026-05-04 23:39 | 40.30215 | -73.19023 | 18403 ft | 456 kts | 126° |
| 2026-05-04 23:39 | 40.28414 | -73.15575 | 18946 ft | 461 kts | 125° |
| 2026-05-04 23:39 | 40.26616 | -73.12064 | 19499 ft | 465 kts | 124° |
| 2026-05-04 23:39 | 40.24832 | -73.08499 | 20025 ft | 469 kts | 124° |
| 2026-05-04 23:40 | 40.23048 | -73.04905 | 20545 ft | 472 kts | 124° |
| 2026-05-04 23:40 | 40.21253 | -73.01297 | 21051 ft | 476 kts | 124° |
| 2026-05-04 23:40 | 40.19435 | -72.97650 | 21512 ft | 480 kts | 123° |
| 2026-05-04 23:40 | 40.17604 | -72.93982 | 21947 ft | 483 kts | 123° |
| 2026-05-04 23:41 | 40.15757 | -72.90290 | 22378 ft | 487 kts | 123° |
| 2026-05-04 23:41 | 40.13898 | -72.86577 | 22827 ft | 489 kts | 123° |
| 2026-05-04 23:41 | 40.12053 | -72.82896 | 23004 ft | 490 kts | 123° |
| 2026-05-04 23:41 | 40.10170 | -72.79145 | 23265 ft | 496 kts | 123° |
| 2026-05-04 23:42 | 40.08340 | -72.75317 | 23728 ft | 498 kts | 121° |
| 2026-05-04 23:42 | 40.06585 | -72.71417 | 24192 ft | 498 kts | 120° |
| 2026-05-04 23:42 | 40.04855 | -72.67501 | 24695 ft | 498 kts | 119° |
| 2026-05-04 23:42 | 40.03110 | -72.63572 | 25077 ft | 501 kts | 120° |
| 2026-05-04 23:43 | 40.01342 | -72.59640 | 25395 ft | 504 kts | 120° |
| 2026-05-04 23:43 | 39.99551 | -72.55699 | 25709 ft | 508 kts | 120° |